createdAt,value
2022-10-13T00:00:48.367Z,10.96
2022-10-13T00:04:50.118Z,10.98
2022-10-13T00:08:52.020Z,11.00
2022-10-13T00:12:53.745Z,11.00
2022-10-13T00:16:57.574Z,11.00
2022-10-13T00:20:59.603Z,11.00
2022-10-13T00:25:01.405Z,10.99
2022-10-13T00:29:03.184Z,11.00
2022-10-13T00:33:05.678Z,11.00
2022-10-13T00:37:07.972Z,11.02
2022-10-13T00:41:10.513Z,11.05
2022-10-13T00:45:24.169Z,11.08
2022-10-13T00:49:25.889Z,11.09
2022-10-13T00:53:33.845Z,11.10
2022-10-13T00:57:36.360Z,11.13
2022-10-13T01:01:38.348Z,11.15
2022-10-13T01:05:41.735Z,11.15
2022-10-13T01:09:43.570Z,11.15
2022-10-13T01:14:13.031Z,11.15
2022-10-13T01:18:46.615Z,11.16
2022-10-13T01:23:04.089Z,11.18
2022-10-13T01:27:38.200Z,11.19
2022-10-13T01:32:06.580Z,11.19
2022-10-13T01:36:35.754Z,11.19
2022-10-13T01:40:43.673Z,11.19
2022-10-13T01:45:01.863Z,11.21
2022-10-13T01:49:07.726Z,11.21
2022-10-13T01:53:11.578Z,11.22
2022-10-13T01:57:35.510Z,11.21
2022-10-13T02:01:55.245Z,11.20
2022-10-13T02:06:05.758Z,11.20
2022-10-13T02:10:22.419Z,11.15
2022-10-13T02:14:30.459Z,11.15
2022-10-13T02:18:34.895Z,11.15
2022-10-13T02:22:42.335Z,11.15
2022-10-13T02:26:44.119Z,11.14
2022-10-13T02:30:46.895Z,11.14
2022-10-13T02:34:49.116Z,11.15
2022-10-13T02:38:50.857Z,11.17
2022-10-13T02:42:52.784Z,11.16
2022-10-13T02:46:54.474Z,11.20
2022-10-13T02:50:56.131Z,11.23
2022-10-13T02:54:57.953Z,11.26
2022-10-13T02:58:59.736Z,11.29
2022-10-13T03:03:01.590Z,11.31
2022-10-13T03:07:03.495Z,11.32
2022-10-13T03:11:05.369Z,11.34
2022-10-13T03:15:07.673Z,11.37
2022-10-13T03:19:09.830Z,11.39
2022-10-13T03:23:11.537Z,11.40
2022-10-13T03:27:13.277Z,11.43
2022-10-13T03:31:14.980Z,11.46
2022-10-13T03:35:16.694Z,11.47
2022-10-13T03:39:18.413Z,11.48
2022-10-13T03:43:20.072Z,11.49
2022-10-13T03:47:21.741Z,11.48
2022-10-13T03:51:24.525Z,11.50
2022-10-13T03:55:26.347Z,11.51
2022-10-13T03:59:34.228Z,11.50
2022-10-13T04:03:38.173Z,11.48
2022-10-13T04:07:39.930Z,11.49
2022-10-13T04:11:53.272Z,11.48
2022-10-13T04:15:55.180Z,11.49
2022-10-13T04:19:56.857Z,11.50
2022-10-13T04:23:59.410Z,11.50
2022-10-13T04:28:01.117Z,11.51
2022-10-13T04:32:02.777Z,11.51
2022-10-13T04:36:09.464Z,11.52
2022-10-13T04:40:11.251Z,11.53
2022-10-13T04:44:12.969Z,11.53
2022-10-13T04:48:14.773Z,11.53
2022-10-13T04:52:16.725Z,11.54
2022-10-13T04:56:19.929Z,11.55
2022-10-13T05:00:21.849Z,11.56
2022-10-13T05:04:23.702Z,11.55
2022-10-13T05:08:25.763Z,11.56
2022-10-13T05:12:27.501Z,11.57
2022-10-13T05:16:31.038Z,11.58
2022-10-13T05:20:32.717Z,11.58
2022-10-13T05:24:37.170Z,11.57
2022-10-13T05:28:39.545Z,11.59
2022-10-13T05:32:41.279Z,11.59
2022-10-13T05:36:43.682Z,11.61
2022-10-13T05:40:45.378Z,11.63
2022-10-13T05:44:47.162Z,11.65
2022-10-13T05:48:49.696Z,11.67
2022-10-13T05:52:51.671Z,11.69
2022-10-13T05:57:00.001Z,11.71
2022-10-13T06:01:07.160Z,11.73
2022-10-13T06:05:14.811Z,11.74
2022-10-13T06:09:16.807Z,11.75
2022-10-13T06:13:18.609Z,11.77
2022-10-13T06:17:20.279Z,11.78
2022-10-13T06:21:22.155Z,11.80
2022-10-13T06:25:23.852Z,11.80
2022-10-13T06:29:25.571Z,11.81
2022-10-13T06:33:27.253Z,11.81
2022-10-13T06:37:29.037Z,11.81
2022-10-13T06:41:30.736Z,11.82
2022-10-13T06:45:32.432Z,11.83
2022-10-13T06:49:34.163Z,11.84
2022-10-13T06:53:36.432Z,11.86
2022-10-13T06:57:38.311Z,11.88
2022-10-13T07:01:42.295Z,11.88
2022-10-13T07:05:47.415Z,11.89
2022-10-13T07:09:49.557Z,11.93
2022-10-13T07:13:51.318Z,11.95
2022-10-13T07:17:54.118Z,11.97
2022-10-13T07:21:56.890Z,12.00
2022-10-13T07:25:58.887Z,12.04
2022-10-13T07:30:00.571Z,12.08
2022-10-13T07:34:02.356Z,12.11
2022-10-13T07:38:05.059Z,12.15
2022-10-13T07:42:06.861Z,12.18
2022-10-13T07:46:10.252Z,12.23
2022-10-13T07:50:12.106Z,12.27
2022-10-13T07:54:14.374Z,12.31
2022-10-13T07:58:16.271Z,12.33
2022-10-13T08:02:18.198Z,12.38
2022-10-13T08:06:20.103Z,12.42
2022-10-13T08:10:22.186Z,12.45
2022-10-13T08:14:23.881Z,12.49
2022-10-13T08:18:25.565Z,12.52
2022-10-13T08:22:28.405Z,12.55
2022-10-13T08:26:30.585Z,12.58
2022-10-13T08:30:32.913Z,12.60
2022-10-13T08:34:36.604Z,12.65
2022-10-13T08:38:38.386Z,12.66
2022-10-13T08:42:44.043Z,12.68
2022-10-13T08:47:01.960Z,12.71
2022-10-13T08:51:07.597Z,12.74
2022-10-13T08:55:25.307Z,12.79
2022-10-13T08:59:27.056Z,12.85
2022-10-13T09:03:29.929Z,12.88
2022-10-13T09:07:35.183Z,12.88
2022-10-13T09:11:39.965Z,12.89
2022-10-13T09:15:47.840Z,12.88
2022-10-13T09:19:59.537Z,12.89
2022-10-13T09:24:13.505Z,12.92
2022-10-13T09:28:31.459Z,12.95
2022-10-13T09:32:35.785Z,13.00
2022-10-13T09:36:38.369Z,13.02
2022-10-13T09:40:41.137Z,13.04
2022-10-13T09:44:43.092Z,13.05
2022-10-13T09:48:50.713Z,13.07
2022-10-13T09:52:53.202Z,13.08
2022-10-13T09:57:03.875Z,13.07
2022-10-13T10:01:06.369Z,13.09
2022-10-13T10:05:27.275Z,13.12
2022-10-13T10:09:36.644Z,13.17
2022-10-13T10:13:38.371Z,13.24
2022-10-13T10:17:47.984Z,13.27
2022-10-13T10:21:49.610Z,13.26
2022-10-13T10:25:59.453Z,13.25
2022-10-13T10:30:18.969Z,13.31
2022-10-13T10:34:35.204Z,13.37
2022-10-13T10:39:02.952Z,13.43
2022-10-13T10:43:24.795Z,13.44
2022-10-13T10:47:42.180Z,13.42
2022-10-13T10:51:44.974Z,13.41
2022-10-13T10:55:53.542Z,13.43
2022-10-13T11:00:15.279Z,13.43
2022-10-13T11:04:32.500Z,13.41
2022-10-13T11:08:41.811Z,13.38
2022-10-13T11:12:52.709Z,13.34
2022-10-13T11:17:06.629Z,13.32
2022-10-13T11:21:08.468Z,13.28
2022-10-13T11:25:40.593Z,13.24
2022-10-13T11:29:52.042Z,13.09
2022-10-13T11:34:01.850Z,12.98
2022-10-13T11:38:21.426Z,12.89
2022-10-13T11:43:03.802Z,12.84
2022-10-13T11:47:19.202Z,12.80
2022-10-13T11:51:42.643Z,12.83
2022-10-13T11:55:54.664Z,12.74
2022-10-13T11:59:57.076Z,12.45
2022-10-13T12:04:15.237Z,12.29
2022-10-13T12:08:19.969Z,12.26
2022-10-13T12:12:23.428Z,12.25
2022-10-13T12:16:26.616Z,12.24
2022-10-13T12:20:31.306Z,12.21
2022-10-13T12:24:33.013Z,12.16
2022-10-13T12:29:00.802Z,12.17
2022-10-13T12:33:04.167Z,12.13
2022-10-13T12:37:19.005Z,12.17
2022-10-13T12:41:30.710Z,12.15
2022-10-13T12:45:34.715Z,12.16
2022-10-13T12:49:37.067Z,12.16
2022-10-13T12:53:39.595Z,12.13
2022-10-13T12:57:45.160Z,12.10
2022-10-13T13:02:02.678Z,12.09
2022-10-13T13:06:11.583Z,12.06
2022-10-13T13:10:20.737Z,12.04
2022-10-13T13:14:36.678Z,12.01
2022-10-13T13:18:41.850Z,12.01
2022-10-13T13:22:43.561Z,12.02
2022-10-13T13:26:46.301Z,12.03
2022-10-13T13:30:47.966Z,12.04
2022-10-13T13:34:50.215Z,12.04
2022-10-13T13:38:53.201Z,12.02
2022-10-13T13:42:55.445Z,12.05
2022-10-13T13:47:00.184Z,12.04
2022-10-13T13:51:02.061Z,12.00
2022-10-13T13:55:03.985Z,11.99
2022-10-13T13:59:05.660Z,11.95
2022-10-13T14:03:07.382Z,11.89
2022-10-13T14:07:09.852Z,11.90
2022-10-13T14:11:12.027Z,11.86
2022-10-13T14:15:13.782Z,11.82
2022-10-13T14:19:15.523Z,11.78
2022-10-13T14:23:17.508Z,11.74
2022-10-13T14:27:19.174Z,11.72
2022-10-13T14:31:20.866Z,11.73
2022-10-13T14:35:22.597Z,11.72
2022-10-13T14:39:24.328Z,11.74
2022-10-13T14:43:26.400Z,11.74
2022-10-13T14:47:28.152Z,11.75
2022-10-13T14:51:29.886Z,11.73
2022-10-13T14:55:32.291Z,11.73
2022-10-13T14:59:34.036Z,11.75
2022-10-13T15:03:35.738Z,11.81
2022-10-13T15:07:40.981Z,11.86
2022-10-13T15:11:43.123Z,11.88
2022-10-13T15:15:48.148Z,11.93
2022-10-13T15:19:50.069Z,11.92
2022-10-13T15:23:52.002Z,11.92
2022-10-13T15:27:53.833Z,11.92
2022-10-13T15:32:08.173Z,11.96
2022-10-13T15:36:09.998Z,12.00
2022-10-13T15:40:14.382Z,12.08
2022-10-13T15:44:19.710Z,12.16
2022-10-13T15:48:21.771Z,12.24
2022-10-13T15:52:23.940Z,12.27
2022-10-13T15:56:26.089Z,12.27
2022-10-13T16:00:27.870Z,12.27
2022-10-13T16:04:33.475Z,12.26
2022-10-13T16:08:39.870Z,12.28
2022-10-13T16:12:46.981Z,12.25
2022-10-13T16:16:51.242Z,12.20
2022-10-13T16:20:52.957Z,12.19
2022-10-13T16:24:54.636Z,12.20
2022-10-13T16:28:56.912Z,12.21
2022-10-13T16:32:58.689Z,12.17
2022-10-13T16:37:00.380Z,12.15
2022-10-13T16:41:06.751Z,12.16
2022-10-13T16:45:09.013Z,12.18
2022-10-13T16:49:11.558Z,12.17
2022-10-13T16:53:13.401Z,12.19
2022-10-13T16:57:15.177Z,12.19
2022-10-13T17:01:17.054Z,12.17
2022-10-13T17:05:18.796Z,12.17
2022-10-13T17:09:20.483Z,12.15
2022-10-13T17:13:22.287Z,12.12
2022-10-13T17:17:24.665Z,12.12
2022-10-13T17:21:26.337Z,12.10
2022-10-13T17:25:28.407Z,12.08
2022-10-13T17:29:30.247Z,12.05
2022-10-13T17:33:34.456Z,12.01
2022-10-13T17:37:36.305Z,11.95
2022-10-13T17:41:38.037Z,11.88
2022-10-13T17:45:39.883Z,11.80
2022-10-13T17:49:41.578Z,11.73
2022-10-13T17:53:45.994Z,11.68
2022-10-13T17:57:47.807Z,11.61
2022-10-13T18:01:49.785Z,11.55
2022-10-13T18:05:53.491Z,11.51
2022-10-13T18:09:55.207Z,11.48
2022-10-13T18:13:58.752Z,11.44
2022-10-13T18:18:00.478Z,11.39
2022-10-13T18:22:04.405Z,11.34
2022-10-13T18:26:17.348Z,11.33
2022-10-13T18:30:22.313Z,11.30
2022-10-13T18:34:24.861Z,11.26
2022-10-13T18:38:26.957Z,11.20
2022-10-13T18:42:28.907Z,11.16
2022-10-13T18:46:32.253Z,11.15
2022-10-13T18:50:37.885Z,11.11
2022-10-13T18:54:39.610Z,11.07
2022-10-13T18:58:41.788Z,11.03
2022-10-13T19:02:43.535Z,11.00
2022-10-13T19:06:46.583Z,10.98
2022-10-13T19:10:48.336Z,10.97
2022-10-13T19:14:50.069Z,10.98
2022-10-13T19:18:52.405Z,11.00
2022-10-13T19:22:54.115Z,11.01
2022-10-13T19:26:56.299Z,11.01
2022-10-13T19:30:58.067Z,11.00
2022-10-13T19:34:59.888Z,10.99
2022-10-13T19:39:03.971Z,11.00
2022-10-13T19:43:05.763Z,10.99
2022-10-13T19:47:07.498Z,10.97
2022-10-13T19:51:09.833Z,10.93
2022-10-13T19:55:11.749Z,10.90
2022-10-13T19:59:14.457Z,10.84
2022-10-13T20:03:16.541Z,10.78
2022-10-13T20:07:20.865Z,10.70
2022-10-13T20:11:24.321Z,10.64
2022-10-13T20:15:26.294Z,10.62
2022-10-13T20:19:34.065Z,10.59
2022-10-13T20:23:35.901Z,10.55
2022-10-13T20:27:37.560Z,10.50
2022-10-13T20:31:39.768Z,10.47
2022-10-13T20:35:41.449Z,10.44
2022-10-13T20:39:43.162Z,10.43
2022-10-13T20:43:46.239Z,10.40
2022-10-13T20:47:50.723Z,10.38
2022-10-13T20:51:52.510Z,10.36
2022-10-13T20:55:58.544Z,10.35
2022-10-13T21:00:00.192Z,10.31
2022-10-13T21:04:01.957Z,10.28
2022-10-13T21:08:03.730Z,10.29
2022-10-13T21:12:06.315Z,10.26
2022-10-13T21:16:11.497Z,10.23
2022-10-13T21:20:13.228Z,10.18
2022-10-13T21:24:14.895Z,10.12
2022-10-13T21:28:16.719Z,10.09
2022-10-13T21:32:19.553Z,10.03
2022-10-13T21:36:25.193Z,10.01
2022-10-13T21:40:27.135Z,10.01
2022-10-13T21:44:30.968Z,10.03
2022-10-13T21:48:32.681Z,10.02
2022-10-13T21:52:35.810Z,10.00
2022-10-13T21:56:38.414Z,9.99
2022-10-13T22:00:40.650Z,9.99
2022-10-13T22:04:42.562Z,9.96
2022-10-13T22:08:45.897Z,9.95
2022-10-13T22:12:48.906Z,9.93
2022-10-13T22:16:52.682Z,9.89
2022-10-13T22:20:54.347Z,9.87
2022-10-13T22:24:56.048Z,9.82
2022-10-13T22:29:02.903Z,9.76
2022-10-13T22:33:04.617Z,9.74
2022-10-13T22:37:06.317Z,9.71
2022-10-13T22:41:08.710Z,9.69
2022-10-13T22:45:10.583Z,9.71
2022-10-13T22:49:13.480Z,9.69
2022-10-13T22:53:15.302Z,9.71
2022-10-13T22:57:17.014Z,9.72
2022-10-13T23:01:19.068Z,9.71
2022-10-13T23:05:20.854Z,9.69
2022-10-13T23:09:22.556Z,9.69
2022-10-13T23:13:24.603Z,9.71
2022-10-13T23:17:27.645Z,9.74
2022-10-13T23:21:30.725Z,9.75
2022-10-13T23:25:34.630Z,9.70
2022-10-13T23:29:36.384Z,9.70
2022-10-13T23:33:38.172Z,9.71
2022-10-13T23:37:40.026Z,9.69
2022-10-13T23:41:41.730Z,9.66
2022-10-13T23:45:44.281Z,9.61
2022-10-13T23:49:48.507Z,9.60
2022-10-13T23:53:51.127Z,9.59
2022-10-13T23:57:52.849Z,9.61
